createdAt,value
2018-02-15T00:00:54.883Z,-4.72
2018-02-15T00:01:54.886Z,-4.64
2018-02-15T00:02:54.897Z,-4.71
2018-02-15T00:03:54.910Z,-4.68
2018-02-15T00:04:54.928Z,-4.64
2018-02-15T00:05:54.898Z,-4.69
2018-02-15T00:06:54.911Z,-4.62
2018-02-15T00:07:54.895Z,-4.61
2018-02-15T00:08:54.938Z,-4.67
2018-02-15T00:09:54.933Z,-4.62
2018-02-15T00:10:54.900Z,-4.61
2018-02-15T00:11:54.939Z,-4.64
2018-02-15T00:12:54.911Z,-4.67
2018-02-15T00:13:54.904Z,-4.75
2018-02-15T00:14:54.901Z,-4.66
2018-02-15T00:15:54.923Z,-4.66
2018-02-15T00:16:54.920Z,-4.64
2018-02-15T00:17:54.919Z,-4.62
2018-02-15T00:18:54.925Z,-4.68
2018-02-15T00:19:55.292Z,-4.56
2018-02-15T00:20:54.938Z,-4.63
2018-02-15T00:21:54.936Z,-4.68
2018-02-15T00:22:54.929Z,-4.63
2018-02-15T00:23:54.932Z,-4.65
2018-02-15T00:24:55.068Z,-4.64
2018-02-15T00:25:55.054Z,-4.64
2018-02-15T00:26:54.958Z,-4.71
2018-02-15T00:27:54.957Z,-4.62
2018-02-15T00:28:54.957Z,-4.63
2018-02-15T00:29:54.990Z,-4.61
2018-02-15T00:30:54.986Z,-4.64
2018-02-15T00:31:54.982Z,-4.62
2018-02-15T00:32:54.970Z,-4.65
2018-02-15T00:33:54.986Z,-4.64
2018-02-15T00:34:55.004Z,-4.7
2018-02-15T00:35:54.989Z,-4.64
2018-02-15T00:36:55.000Z,-4.66
2018-02-15T00:37:54.981Z,-4.63
2018-02-15T00:38:55.010Z,-4.64
2018-02-15T00:39:54.999Z,-4.64
2018-02-15T00:40:55.017Z,-4.66
2018-02-15T00:41:55.010Z,-4.63
2018-02-15T00:42:55.000Z,-4.61
2018-02-15T00:43:55.017Z,-4.61
2018-02-15T00:44:55.033Z,-4.62
2018-02-15T00:45:55.010Z,-4.65
2018-02-15T00:46:55.016Z,-4.63
2018-02-15T00:47:55.033Z,-4.6
2018-02-15T00:48:55.024Z,-4.61
2018-02-15T00:49:55.054Z,-4.63
2018-02-15T00:50:55.038Z,-4.64
2018-02-15T00:51:55.100Z,-4.62
2018-02-15T00:52:55.035Z,-4.58
2018-02-15T00:53:55.066Z,-4.61
2018-02-15T00:54:55.055Z,-4.6
2018-02-15T00:55:55.058Z,-4.63
2018-02-15T00:56:55.074Z,-4.62
2018-02-15T00:57:55.074Z,-4.58
2018-02-15T00:58:55.078Z,-4.6
2018-02-15T00:59:55.070Z,-4.56
2018-02-15T01:00:55.066Z,-4.52
2018-02-15T01:01:55.076Z,-4.51
2018-02-15T01:02:55.120Z,-4.48
2018-02-15T01:03:55.190Z,-4.49
2018-02-15T01:04:55.084Z,-4.49
2018-02-15T01:05:55.119Z,-4.48
2018-02-15T01:06:55.089Z,-4.45
2018-02-15T01:07:55.093Z,-4.46
2018-02-15T01:08:55.089Z,-4.45
2018-02-15T01:09:55.108Z,-4.49
2018-02-15T01:10:55.103Z,-4.48
2018-02-15T01:11:55.102Z,-4.49
2018-02-15T01:12:55.107Z,-4.48
2018-02-15T01:13:55.117Z,-4.45
2018-02-15T01:14:55.353Z,-4.44
2018-02-15T01:15:55.169Z,-4.5
2018-02-15T01:16:55.112Z,-4.45
2018-02-15T01:17:55.121Z,-4.46
2018-02-15T01:18:55.126Z,-4.47
2018-02-15T01:19:55.186Z,-4.44
2018-02-15T01:20:55.148Z,-4.49
2018-02-15T01:21:55.141Z,-4.54
2018-02-15T01:22:55.147Z,-4.49
2018-02-15T01:23:55.161Z,-4.47
2018-02-15T01:24:55.162Z,-4.5
2018-02-15T01:25:55.432Z,-4.45
2018-02-15T01:26:55.161Z,-4.45
2018-02-15T01:27:55.164Z,-4.47
2018-02-15T01:28:55.174Z,-4.45
2018-02-15T01:29:55.182Z,-4.46
2018-02-15T01:30:55.190Z,-4.39
2018-02-15T01:31:55.226Z,-4.43
2018-02-15T01:32:55.199Z,-4.43
2018-02-15T01:33:55.176Z,-4.42
2018-02-15T01:34:55.184Z,-4.46
2018-02-15T01:35:55.193Z,-4.48
2018-02-15T01:36:55.390Z,-4.47
2018-02-15T01:37:55.220Z,-4.44
2018-02-15T01:38:55.198Z,-4.51
2018-02-15T01:39:55.191Z,-4.53
2018-02-15T01:40:55.200Z,-4.46
2018-02-15T01:41:55.242Z,-4.49
2018-02-15T01:42:55.225Z,-4.49
2018-02-15T01:43:55.214Z,-4.45
2018-02-15T01:44:55.209Z,-4.5
2018-02-15T01:45:55.231Z,-4.51
2018-02-15T01:46:55.204Z,-4.52
2018-02-15T01:47:55.856Z,-4.48
2018-02-15T01:48:55.219Z,-4.52
2018-02-15T01:49:55.218Z,-4.47
2018-02-15T01:50:55.207Z,-4.51
2018-02-15T01:51:55.214Z,-4.46
2018-02-15T01:52:55.220Z,-4.53
2018-02-15T01:53:55.249Z,-4.5
2018-02-15T01:54:55.237Z,-4.5
2018-02-15T01:55:55.242Z,-4.56
2018-02-15T01:56:55.230Z,-4.49
2018-02-15T01:57:55.257Z,-4.49
2018-02-15T01:58:55.269Z,-4.46
2018-02-15T01:59:55.249Z,-4.5
2018-02-15T02:00:55.254Z,-4.47
2018-02-15T02:01:55.266Z,-4.44
2018-02-15T02:02:55.265Z,-4.46
2018-02-15T02:03:55.271Z,-4.5
2018-02-15T02:04:55.271Z,-4.49
2018-02-15T02:05:55.329Z,-4.53
2018-02-15T02:06:55.267Z,-4.57
2018-02-15T02:07:55.277Z,-4.58
2018-02-15T02:08:55.275Z,-4.53
2018-02-15T02:09:55.290Z,-4.59
2018-02-15T02:10:55.327Z,-4.56
2018-02-15T02:11:55.329Z,-4.56
2018-02-15T02:12:55.304Z,-4.55
2018-02-15T02:13:55.314Z,-4.53
2018-02-15T02:14:55.298Z,-4.58
2018-02-15T02:15:55.330Z,-4.57
2018-02-15T02:16:55.315Z,-4.65
2018-02-15T02:17:55.305Z,-4.69
2018-02-15T02:18:55.301Z,-4.63
2018-02-15T02:19:55.328Z,-4.66
2018-02-15T02:20:55.337Z,-4.69
2018-02-15T02:21:55.334Z,-4.73
2018-02-15T02:22:55.329Z,-4.77
2018-02-15T02:23:55.329Z,-4.7
2018-02-15T02:24:55.340Z,-4.68
2018-02-15T02:25:55.340Z,-4.6
2018-02-15T02:26:55.354Z,-4.68
2018-02-15T02:27:55.335Z,-4.67
2018-02-15T02:28:55.334Z,-4.65
2018-02-15T02:29:55.346Z,-4.71
2018-02-15T02:30:55.482Z,-4.73
2018-02-15T02:31:55.370Z,-4.65
2018-02-15T02:32:55.341Z,-4.7
2018-02-15T02:33:55.396Z,-4.67
2018-02-15T02:34:55.372Z,-4.63
2018-02-15T02:35:55.394Z,-4.63
2018-02-15T02:36:55.388Z,-4.65
2018-02-15T02:37:55.396Z,-4.74
2018-02-15T02:38:55.375Z,-4.78
2018-02-15T02:39:55.384Z,-4.74
2018-02-15T02:40:55.401Z,-4.67
2018-02-15T02:41:55.401Z,-4.72
2018-02-15T02:42:55.415Z,-4.69
2018-02-15T02:43:55.405Z,-4.75
2018-02-15T02:44:55.394Z,-4.81
2018-02-15T02:45:55.406Z,-4.81
2018-02-15T02:46:55.400Z,-4.77
2018-02-15T02:47:55.449Z,-4.8
2018-02-15T02:48:55.433Z,-4.81
2018-02-15T02:49:55.411Z,-4.82
2018-02-15T02:50:55.415Z,-4.82
2018-02-15T02:51:55.421Z,-4.77
2018-02-15T02:52:55.455Z,-4.77
2018-02-15T02:53:55.453Z,-4.75
2018-02-15T02:54:55.442Z,-4.78
2018-02-15T02:55:55.432Z,-4.78
2018-02-15T02:56:55.437Z,-4.79
2018-02-15T02:57:55.464Z,-4.83
2018-02-15T02:58:55.485Z,-4.84
2018-02-15T02:59:55.439Z,-4.79
2018-02-15T03:00:55.474Z,-4.83
2018-02-15T03:01:55.485Z,-4.84
2018-02-15T03:02:55.487Z,-4.83
2018-02-15T03:03:55.491Z,-4.86
2018-02-15T03:04:55.460Z,-4.87
2018-02-15T03:05:55.488Z,-4.82
2018-02-15T03:06:55.472Z,-4.85
2018-02-15T03:07:55.479Z,-4.83
2018-02-15T03:08:55.476Z,-4.86
2018-02-15T03:09:55.496Z,-4.85
2018-02-15T03:10:55.484Z,-4.79
2018-02-15T03:11:55.460Z,-4.8
2018-02-15T03:12:55.466Z,-4.82
2018-02-15T03:13:55.473Z,-4.83
2018-02-15T03:14:55.519Z,-4.84
2018-02-15T03:15:55.492Z,-4.87
2018-02-15T03:16:55.481Z,-4.81
2018-02-15T03:17:56.402Z,-4.76
2018-02-15T03:18:55.494Z,-4.81
2018-02-15T03:19:55.503Z,-4.85
2018-02-15T03:20:55.500Z,-4.85
2018-02-15T03:21:55.490Z,-4.84
2018-02-15T03:22:55.490Z,-4.83
2018-02-15T03:23:55.630Z,-4.82
2018-02-15T03:24:55.507Z,-4.84
2018-02-15T03:25:55.508Z,-4.8
2018-02-15T03:26:55.528Z,-4.81
2018-02-15T03:27:55.529Z,-4.87
2018-02-15T03:28:55.557Z,-4.84
2018-02-15T03:29:55.563Z,-4.82
2018-02-15T03:30:55.549Z,-4.91
2018-02-15T03:31:55.556Z,-4.85
2018-02-15T03:32:55.565Z,-4.85
2018-02-15T03:33:55.593Z,-4.83
2018-02-15T03:34:55.570Z,-4.84
2018-02-15T03:35:55.580Z,-4.82
2018-02-15T03:36:55.568Z,-4.79
2018-02-15T03:37:55.589Z,-4.86
2018-02-15T03:38:55.596Z,-4.83
2018-02-15T03:39:55.603Z,-4.82
2018-02-15T03:40:55.588Z,-4.81
2018-02-15T03:41:55.571Z,-4.82
2018-02-15T03:42:55.577Z,-4.84
2018-02-15T03:43:55.576Z,-4.9
2018-02-15T03:44:55.613Z,-4.99
2018-02-15T03:45:55.623Z,-4.94
2018-02-15T03:46:55.600Z,-4.95
2018-02-15T03:47:55.584Z,-5.01
2018-02-15T03:48:55.594Z,-5.02
2018-02-15T03:49:55.667Z,-4.93
2018-02-15T03:50:55.629Z,-5.04
2018-02-15T03:51:55.619Z,-4.99
2018-02-15T03:52:55.627Z,-5.02
2018-02-15T03:53:55.624Z,-5.06
2018-02-15T03:54:55.641Z,-5.1
2018-02-15T03:55:55.644Z,-5.02
2018-02-15T03:56:55.647Z,-5.07
2018-02-15T03:57:55.624Z,-5.06
2018-02-15T03:58:55.642Z,-5.14
2018-02-15T03:59:55.666Z,-5.11
2018-02-15T04:00:55.676Z,-5.13
2018-02-15T04:01:55.654Z,-5.15
2018-02-15T04:02:55.656Z,-5.1
2018-02-15T04:03:55.661Z,-5.21
2018-02-15T04:04:55.769Z,-5.19
2018-02-15T04:05:55.656Z,-5.13
2018-02-15T04:06:55.724Z,-5.13
2018-02-15T04:07:55.671Z,-5.15
2018-02-15T04:08:55.672Z,-5.25
2018-02-15T04:09:55.680Z,-5.23
2018-02-15T04:10:55.698Z,-5.24
2018-02-15T04:11:55.691Z,-5.15
2018-02-15T04:12:55.681Z,-5.19
2018-02-15T04:13:55.729Z,-5.2
2018-02-15T04:14:55.712Z,-5.07
2018-02-15T04:15:55.718Z,-5.11
2018-02-15T04:16:55.748Z,-5.25
2018-02-15T04:17:55.692Z,-5.26
2018-02-15T04:18:55.720Z,-5.29
2018-02-15T04:19:55.709Z,-5.27
2018-02-15T04:20:55.713Z,-5.22
2018-02-15T04:21:55.701Z,-5.16
2018-02-15T04:22:55.694Z,-5.24
2018-02-15T04:23:55.702Z,-5.25
2018-02-15T04:24:55.712Z,-5.22
2018-02-15T04:25:56.061Z,-5.2
2018-02-15T04:26:55.735Z,-5.23
2018-02-15T04:27:55.713Z,-5.15
2018-02-15T04:28:55.711Z,-5.15
2018-02-15T04:29:55.716Z,-5.22
2018-02-15T04:30:55.740Z,-5.27
2018-02-15T04:31:56.422Z,-5.29
2018-02-15T04:32:55.729Z,-5.23
2018-02-15T04:33:58.773Z,-5.28
2018-02-15T04:34:55.746Z,-5.32
2018-02-15T04:35:55.726Z,-5.25
2018-02-15T04:36:55.759Z,-5.17
2018-02-15T04:37:55.770Z,-5.25
2018-02-15T04:38:55.742Z,-5.16
2018-02-15T04:39:55.750Z,-5.28
2018-02-15T04:40:55.748Z,-5.23
2018-02-15T04:41:55.762Z,-5.26
2018-02-15T04:42:55.768Z,-5.22
2018-02-15T04:43:55.794Z,-5.24
2018-02-15T04:44:55.767Z,-5.25
2018-02-15T04:45:55.765Z,-5.23
2018-02-15T04:46:55.790Z,-5.15
2018-02-15T04:47:55.785Z,-5.18
2018-02-15T04:48:55.808Z,-5.26
2018-02-15T04:49:55.817Z,-5.38
2018-02-15T04:50:55.791Z,-5.33
2018-02-15T04:51:55.806Z,-5.35
2018-02-15T04:52:55.800Z,-5.38
2018-02-15T04:53:55.795Z,-5.36
2018-02-15T04:54:55.833Z,-5.33
2018-02-15T04:55:55.805Z,-5.33
2018-02-15T04:56:55.817Z,-5.33
2018-02-15T04:57:55.817Z,-5.44
2018-02-15T04:58:55.811Z,-5.49
2018-02-15T04:59:55.837Z,-5.5
2018-02-15T05:00:55.841Z,-5.48
2018-02-15T05:01:55.827Z,-5.4
2018-02-15T05:02:55.827Z,-5.37
2018-02-15T05:03:55.828Z,-5.38
2018-02-15T05:04:55.815Z,-5.34
2018-02-15T05:05:55.853Z,-5.47
2018-02-15T05:06:55.862Z,-5.41
2018-02-15T05:07:55.833Z,-5.43
2018-02-15T05:08:55.839Z,-5.38
2018-02-15T05:09:55.854Z,-5.41
2018-02-15T05:10:55.864Z,-5.41
2018-02-15T05:11:55.847Z,-5.49
2018-02-15T05:12:55.840Z,-5.46
2018-02-15T05:13:55.852Z,-5.47
2018-02-15T05:14:55.858Z,-5.47
2018-02-15T05:15:55.867Z,-5.42
2018-02-15T05:16:56.213Z,-5.52
2018-02-15T05:17:55.890Z,-5.52
2018-02-15T05:18:55.863Z,-5.42
2018-02-15T05:19:55.872Z,-5.41
2018-02-15T05:20:55.870Z,-5.47
2018-02-15T05:21:55.912Z,-5.44
2018-02-15T05:22:55.878Z,-5.4
2018-02-15T05:23:55.868Z,-5.38
2018-02-15T05:24:55.873Z,-5.44
2018-02-15T05:25:56.099Z,-5.47
2018-02-15T05:26:55.894Z,-5.5
2018-02-15T05:27:55.861Z,-5.51
2018-02-15T05:28:55.874Z,-5.46
2018-02-15T05:29:55.874Z,-5.42
2018-02-15T05:30:55.911Z,-5.49
2018-02-15T05:31:55.920Z,-5.51
2018-02-15T05:32:55.892Z,-5.45
2018-02-15T05:33:55.897Z,-5.42
2018-02-15T05:34:55.904Z,-5.38
2018-02-15T05:35:55.911Z,-5.37
2018-02-15T05:36:55.913Z,-5.36
2018-02-15T05:37:55.952Z,-5.41
2018-02-15T05:38:56.032Z,-5.53
2018-02-15T05:39:55.916Z,-5.53
2018-02-15T05:40:56.053Z,-5.44
2018-02-15T05:41:55.933Z,-5.41
2018-02-15T05:42:55.939Z,-5.44
2018-02-15T05:43:55.943Z,-5.53
2018-02-15T05:44:55.922Z,-5.43
2018-02-15T05:45:55.926Z,-5.54
2018-02-15T05:46:55.924Z,-5.49
2018-02-15T05:47:55.921Z,-5.41
2018-02-15T05:48:55.982Z,-5.5
2018-02-15T05:49:55.936Z,-5.43
2018-02-15T05:50:55.953Z,-5.36
2018-02-15T05:51:55.929Z,-5.33
2018-02-15T05:52:55.956Z,-5.34
2018-02-15T05:53:56.208Z,-5.43
2018-02-15T05:54:55.949Z,-5.42
2018-02-15T05:55:55.941Z,-5.46
2018-02-15T05:56:55.944Z,-5.44
2018-02-15T05:57:55.958Z,-5.44
2018-02-15T05:58:55.965Z,-5.38
2018-02-15T05:59:56.051Z,-5.29
2018-02-15T06:00:56.010Z,-5.37
2018-02-15T06:01:56.009Z,-5.45
2018-02-15T06:02:56.032Z,-5.52
2018-02-15T06:03:56.024Z,-5.46
2018-02-15T06:04:56.035Z,-5.43
2018-02-15T06:05:56.073Z,-5.43
2018-02-15T06:06:55.994Z,-5.51
2018-02-15T06:07:55.983Z,-5.6
2018-02-15T06:08:56.040Z,-5.47
2018-02-15T06:09:55.993Z,-5.39
2018-02-15T06:10:56.000Z,-5.39
2018-02-15T06:11:56.038Z,-5.38
2018-02-15T06:12:56.008Z,-5.41
2018-02-15T06:13:56.038Z,-5.44
2018-02-15T06:14:56.022Z,-5.52
2018-02-15T06:15:56.026Z,-5.49
2018-02-15T06:16:56.016Z,-5.54
2018-02-15T06:17:56.020Z,-5.59
2018-02-15T06:18:56.020Z,-5.61
2018-02-15T06:19:56.009Z,-5.56
2018-02-15T06:20:56.090Z,-5.46
2018-02-15T06:21:56.045Z,-5.53
2018-02-15T06:22:56.030Z,-5.47
2018-02-15T06:23:56.043Z,-5.52
2018-02-15T06:24:56.042Z,-5.47
2018-02-15T06:25:56.077Z,-5.43
2018-02-15T06:26:56.051Z,-5.46
2018-02-15T06:27:56.065Z,-5.46
2018-02-15T06:28:56.043Z,-5.46
2018-02-15T06:29:56.052Z,-5.47
2018-02-15T06:30:56.058Z,-5.48
2018-02-15T06:31:56.057Z,-5.45
2018-02-15T06:32:56.197Z,-5.42
2018-02-15T06:33:56.073Z,-5.28
2018-02-15T06:34:56.064Z,-5.25
2018-02-15T06:35:56.074Z,-5.29
2018-02-15T06:36:56.209Z,-5.26
2018-02-15T06:37:56.162Z,-5.39
2018-02-15T06:38:56.148Z,-5.43
2018-02-15T06:39:56.072Z,-5.34
2018-02-15T06:40:56.081Z,-5.39
2018-02-15T06:41:56.107Z,-5.37
2018-02-15T06:42:56.113Z,-5.34
2018-02-15T06:43:56.129Z,-5.35
2018-02-15T06:44:56.115Z,-5.33
2018-02-15T06:45:56.104Z,-5.44
2018-02-15T06:46:56.116Z,-5.43
2018-02-15T06:47:56.118Z,-5.44
2018-02-15T06:48:56.129Z,-5.43
2018-02-15T06:49:56.131Z,-5.4
2018-02-15T06:50:56.121Z,-5.4
2018-02-15T06:51:56.123Z,-5.35
2018-02-15T06:52:56.108Z,-5.33
2018-02-15T06:53:56.110Z,-5.39
2018-02-15T06:54:56.119Z,-5.38
2018-02-15T06:55:56.134Z,-5.36
2018-02-15T06:56:56.136Z,-5.33
2018-02-15T06:57:56.104Z,-5.36
2018-02-15T06:58:56.168Z,-5.31
2018-02-15T06:59:56.127Z,-5.31
2018-02-15T07:00:56.125Z,-5.23
2018-02-15T07:01:56.147Z,-5.26
2018-02-15T07:02:56.141Z,-5.27
2018-02-15T07:03:56.197Z,-5.2
2018-02-15T07:04:56.150Z,-5.19
2018-02-15T07:05:56.195Z,-5.29
2018-02-15T07:06:56.211Z,-5.18
2018-02-15T07:07:56.151Z,-5.27
2018-02-15T07:08:56.207Z,-5.28
2018-02-15T07:09:56.928Z,-5.33
2018-02-15T07:10:56.171Z,-5.25
2018-02-15T07:11:56.407Z,-5.23
2018-02-15T07:12:56.189Z,-5.19
2018-02-15T07:13:56.191Z,-5.19
2018-02-15T07:14:56.209Z,-5.18
2018-02-15T07:15:56.188Z,-5.16
2018-02-15T07:16:56.193Z,-5.17
2018-02-15T07:17:56.221Z,-5.19
2018-02-15T07:18:56.206Z,-5.19
2018-02-15T07:19:56.481Z,-5.12
2018-02-15T07:20:56.236Z,-5.09
2018-02-15T07:21:56.215Z,-5.17
2018-02-15T07:22:56.228Z,-5.19
2018-02-15T07:23:56.241Z,-5.12
2018-02-15T07:24:56.271Z,-5.17
2018-02-15T07:25:56.236Z,-5.08
2018-02-15T07:26:56.492Z,-5.02
2018-02-15T07:27:56.233Z,-5.08
2018-02-15T07:28:56.251Z,-4.99
2018-02-15T07:29:56.248Z,-5.09
2018-02-15T07:30:56.244Z,-4.89
2018-02-15T07:31:56.275Z,-4.82
2018-02-15T07:32:56.276Z,-4.69
2018-02-15T07:33:56.289Z,-4.61
2018-02-15T07:34:56.269Z,-4.58
2018-02-15T07:35:56.272Z,-4.23
2018-02-15T07:36:56.271Z,-3.98
2018-02-15T07:37:56.295Z,-3.86
2018-02-15T07:38:56.298Z,-3.83
2018-02-15T07:39:56.358Z,-3.63
2018-02-15T07:40:56.285Z,-3.61
2018-02-15T07:41:56.302Z,-3.52
2018-02-15T07:42:56.282Z,-3.16
2018-02-15T07:43:56.306Z,-3.06
2018-02-15T07:44:57.108Z,-3.01
2018-02-15T07:45:56.327Z,-2.89
2018-02-15T07:46:56.312Z,-2.99
2018-02-15T07:47:56.320Z,-2.86
2018-02-15T07:48:56.479Z,-2.68
2018-02-15T07:49:56.367Z,-2.59
2018-02-15T07:50:56.340Z,-2.69
2018-02-15T07:51:56.303Z,-2.39
2018-02-15T07:52:56.317Z,-2.44
2018-02-15T07:53:56.341Z,-2.3
2018-02-15T07:54:56.597Z,-2.15
2018-02-15T07:55:56.322Z,-2.15
2018-02-15T07:56:56.329Z,-2.11
2018-02-15T07:57:56.331Z,-1.94
2018-02-15T07:58:56.332Z,-1.81
2018-02-15T07:59:56.351Z,-1.78
2018-02-15T08:00:56.367Z,-1.74
2018-02-15T08:01:56.418Z,-1.69
2018-02-15T08:02:56.412Z,-1.61
2018-02-15T08:03:56.345Z,-1.71
2018-02-15T08:04:56.368Z,-1.64
2018-02-15T08:05:56.367Z,-1.76
2018-02-15T08:06:56.348Z,-1.65
2018-02-15T08:07:56.353Z,-1.64
2018-02-15T08:08:56.371Z,-1.51
2018-02-15T08:09:56.364Z,-1.52
2018-02-15T08:10:56.337Z,-1.54
2018-02-15T08:11:56.372Z,-1.48
2018-02-15T08:12:56.350Z,-1.51
2018-02-15T08:13:56.358Z,-1.53
2018-02-15T08:14:56.377Z,-1.51
2018-02-15T08:15:56.369Z,-1.52
2018-02-15T08:16:56.363Z,-1.45
2018-02-15T08:17:56.360Z,-1.65
2018-02-15T08:18:56.366Z,-1.61
2018-02-15T08:19:56.396Z,-1.71
2018-02-15T08:20:56.371Z,-1.53
2018-02-15T08:21:56.387Z,-1.61
2018-02-15T08:22:56.387Z,-1.73
2018-02-15T08:23:56.383Z,-1.63
2018-02-15T08:24:56.395Z,-1.71
2018-02-15T08:25:56.392Z,-1.63
2018-02-15T08:26:56.397Z,-1.65
2018-02-15T08:27:56.396Z,-1.62
2018-02-15T08:28:56.416Z,-1.6
2018-02-15T08:29:56.412Z,-1.62
2018-02-15T08:30:56.419Z,-1.58
2018-02-15T08:31:56.434Z,-1.75
2018-02-15T08:32:56.420Z,-1.64
2018-02-15T08:33:56.434Z,-1.61
2018-02-15T08:34:56.448Z,-1.57
2018-02-15T08:35:56.438Z,-1.64
2018-02-15T08:36:56.437Z,-1.6
2018-02-15T08:37:56.444Z,-1.56
2018-02-15T08:38:56.445Z,-1.51
2018-02-15T08:39:56.467Z,-1.53
2018-02-15T08:40:56.463Z,-1.5
2018-02-15T08:41:56.452Z,-1.6
2018-02-15T08:42:56.497Z,-1.52
2018-02-15T08:43:56.458Z,-1.51
2018-02-15T08:44:56.509Z,-1.56
2018-02-15T08:45:56.464Z,-1.58
2018-02-15T08:46:56.447Z,-1.49
2018-02-15T08:47:56.466Z,-1.6
2018-02-15T08:48:56.476Z,-1.53
2018-02-15T08:49:56.552Z,-1.54
2018-02-15T08:50:56.472Z,-1.51
2018-02-15T08:51:56.481Z,-1.53
2018-02-15T08:52:56.462Z,-1.57
2018-02-15T08:53:56.474Z,-1.49
2018-02-15T08:54:25.722Z,-1.43
2018-02-15T08:55:25.764Z,-1.49
2018-02-15T08:56:25.745Z,-1.5
2018-02-15T08:57:25.738Z,-1.47
2018-02-15T08:58:25.731Z,-1.41
2018-02-15T08:59:25.744Z,-1.56
2018-02-15T09:00:25.775Z,-1.47
2018-02-15T09:01:25.729Z,-1.51
2018-02-15T09:02:25.760Z,-1.57
2018-02-15T09:03:25.742Z,-1.48
2018-02-15T09:04:25.805Z,-1.38
2018-02-15T09:05:25.760Z,-1.41
2018-02-15T09:06:25.760Z,-1.38
2018-02-15T09:07:25.771Z,-1.42
2018-02-15T09:08:25.757Z,-1.42
2018-02-15T09:09:25.761Z,-1.51
2018-02-15T09:10:25.817Z,-1.35
2018-02-15T09:11:25.771Z,-1.32
2018-02-15T09:12:25.784Z,-1.41
2018-02-15T09:13:25.786Z,-1.31
2018-02-15T09:14:25.805Z,-1.3
2018-02-15T09:15:25.801Z,-1.26
2018-02-15T09:16:25.796Z,-1.29
2018-02-15T09:17:25.838Z,-1.16
2018-02-15T09:18:25.796Z,-1.19
2018-02-15T09:19:25.800Z,-1.15
2018-02-15T09:20:25.801Z,-1.22
2018-02-15T09:21:25.811Z,-1.23
2018-02-15T09:22:25.978Z,-1.2
2018-02-15T09:23:25.834Z,-1.13
2018-02-15T09:24:25.811Z,-1.12
2018-02-15T09:25:25.814Z,-1.06
2018-02-15T09:26:25.824Z,-1.04
2018-02-15T09:27:25.858Z,-1.06
2018-02-15T09:28:25.841Z,-1.09
2018-02-15T09:29:25.828Z,-1.05
2018-02-15T09:30:25.861Z,-1.04
2018-02-15T09:31:25.830Z,-1.06
2018-02-15T09:32:25.972Z,-1.2
2018-02-15T09:33:25.836Z,-1.09
2018-02-15T09:34:25.847Z,-1.12
2018-02-15T09:35:25.830Z,-1.06
2018-02-15T09:36:25.850Z,-1.06
2018-02-15T09:37:25.868Z,-1.01
2018-02-15T09:38:25.870Z,-0.97
2018-02-15T09:39:25.897Z,-1.03
2018-02-15T09:40:25.845Z,-1.04
2018-02-15T09:41:25.854Z,-1.07
2018-02-15T09:42:25.876Z,-1.03
2018-02-15T09:43:25.859Z,-1.03
2018-02-15T09:44:25.863Z,-0.99
2018-02-15T09:45:25.855Z,-0.99
2018-02-15T09:46:25.851Z,-1.02
2018-02-15T09:47:25.971Z,-0.93
2018-02-15T09:48:25.860Z,-0.93
2018-02-15T09:49:25.903Z,-0.97
2018-02-15T09:50:25.882Z,-0.92
2018-02-15T09:51:25.935Z,-0.92
2018-02-15T09:52:26.043Z,-0.88
2018-02-15T09:53:25.885Z,-0.9
2018-02-15T09:54:26.049Z,-0.87
2018-02-15T09:55:25.869Z,-0.88
2018-02-15T09:56:25.887Z,-0.91
2018-02-15T09:57:25.877Z,-0.86
2018-02-15T09:58:25.891Z,-0.79
2018-02-15T09:59:25.886Z,-0.87
2018-02-15T10:00:25.875Z,-0.89
2018-02-15T10:01:25.902Z,-0.77
2018-02-15T10:02:25.891Z,-0.84
2018-02-15T10:03:25.892Z,-0.79
2018-02-15T10:04:25.915Z,-0.77
2018-02-15T10:05:25.904Z,-0.74
2018-02-15T10:06:25.914Z,-0.76
2018-02-15T10:07:25.926Z,-0.8
2018-02-15T10:08:25.929Z,-0.73
2018-02-15T10:09:25.901Z,-0.72
2018-02-15T10:10:26.084Z,-0.76
2018-02-15T10:11:25.909Z,-0.69
2018-02-15T10:12:25.918Z,-0.71
2018-02-15T10:13:25.957Z,-0.69
2018-02-15T10:14:25.908Z,-0.66
2018-02-15T10:15:25.914Z,-0.65
2018-02-15T10:16:25.956Z,-0.58
2018-02-15T10:17:25.935Z,-0.53
2018-02-15T10:18:25.940Z,-0.3
2018-02-15T10:19:25.931Z,-0.51
2018-02-15T10:20:25.930Z,-0.49
2018-02-15T10:21:25.951Z,-0.32
2018-02-15T10:22:25.945Z,-0.16
2018-02-15T10:23:25.926Z,-0.19
2018-02-15T10:24:25.962Z,-0.26
2018-02-15T10:25:25.949Z,-0.28
2018-02-15T10:26:25.952Z,-0.16
2018-02-15T10:27:25.952Z,-0.21
2018-02-15T10:28:25.952Z,-0.28
2018-02-15T10:29:25.987Z,-0.16
2018-02-15T10:30:25.956Z,-0.19
2018-02-15T10:31:25.957Z,0.06
2018-02-15T10:32:25.967Z,0.02
2018-02-15T10:33:25.981Z,0.17
2018-02-15T10:34:26.003Z,-0.06
2018-02-15T10:35:25.980Z,-0.09
2018-02-15T10:36:25.982Z,0
2018-02-15T10:37:25.974Z,0.07
2018-02-15T10:38:25.976Z,0.12
2018-02-15T10:39:25.997Z,-0.01
2018-02-15T10:40:25.999Z,-0.07
2018-02-15T10:41:26.016Z,-0.09
2018-02-15T10:42:25.991Z,-0.1
2018-02-15T10:43:26.011Z,0.29
2018-02-15T10:44:26.028Z,0.03
2018-02-15T10:45:26.010Z,0.12
2018-02-15T10:46:26.018Z,0.03
2018-02-15T10:47:26.011Z,-0.05
2018-02-15T10:48:26.005Z,0.04
2018-02-15T10:49:26.105Z,0
2018-02-15T10:50:26.025Z,-0.11
2018-02-15T10:51:26.081Z,-0.11
2018-02-15T10:52:26.027Z,-0.08
2018-02-15T10:53:26.035Z,0.18
2018-02-15T10:54:26.079Z,0.1
2018-02-15T10:55:26.039Z,-0.12
2018-02-15T10:56:26.246Z,0.03
2018-02-15T10:57:26.044Z,-0.01
2018-02-15T10:58:26.037Z,0.09
2018-02-15T10:59:26.072Z,-0.01
2018-02-15T11:00:26.038Z,-0.07
2018-02-15T11:01:26.120Z,0.08
2018-02-15T11:02:26.047Z,0.12
2018-02-15T11:03:26.057Z,0.03
2018-02-15T11:04:26.088Z,0.01
2018-02-15T11:05:26.064Z,0.06
2018-02-15T11:06:26.063Z,0.18
2018-02-15T11:07:26.057Z,0.17
2018-02-15T11:08:26.084Z,0.12
2018-02-15T11:09:26.096Z,0.08
2018-02-15T11:10:26.074Z,0.15
2018-02-15T11:11:26.080Z,0.3
2018-02-15T11:12:26.066Z,0.22
2018-02-15T11:13:26.077Z,0.26
2018-02-15T11:14:26.108Z,0.28
2018-02-15T11:15:26.088Z,0.23
2018-02-15T11:16:26.090Z,0.37
2018-02-15T11:17:26.102Z,0.19
2018-02-15T11:18:26.106Z,0.25
2018-02-15T11:19:26.103Z,0.31
2018-02-15T11:20:26.108Z,0.28
2018-02-15T11:21:26.115Z,0.35
2018-02-15T11:22:26.972Z,0.33
2018-02-15T11:23:27.041Z,0.47
2018-02-15T11:24:26.380Z,0.43
2018-02-15T11:25:26.125Z,0.61
2018-02-15T11:26:26.999Z,0.43
2018-02-15T11:27:26.136Z,0.39
2018-02-15T11:28:27.900Z,0.5
2018-02-15T11:29:26.676Z,0.44
2018-02-15T11:30:26.141Z,0.5
2018-02-15T11:31:27.028Z,0.47
2018-02-15T11:32:26.153Z,0.41
2018-02-15T11:33:26.180Z,0.48
2018-02-15T11:34:26.162Z,0.49
2018-02-15T11:35:26.165Z,0.52
2018-02-15T11:36:26.167Z,0.48
2018-02-15T11:37:27.211Z,0.47
2018-02-15T11:38:26.199Z,0.41
2018-02-15T11:39:26.179Z,0.44
2018-02-15T11:40:28.241Z,0.49
2018-02-15T11:41:26.177Z,0.54
2018-02-15T11:42:26.188Z,0.6
2018-02-15T11:43:28.153Z,0.53
2018-02-15T11:44:26.189Z,0.56
2018-02-15T11:45:26.197Z,0.65
2018-02-15T11:46:26.200Z,0.61
2018-02-15T11:47:26.201Z,0.58
2018-02-15T11:48:26.201Z,0.55
2018-02-15T11:49:26.208Z,0.58
2018-02-15T11:50:26.213Z,0.56
2018-02-15T11:51:26.218Z,0.66
2018-02-15T11:52:26.204Z,0.63
2018-02-15T11:53:26.246Z,0.61
2018-02-15T11:54:26.220Z,0.71
2018-02-15T11:55:26.230Z,0.59
2018-02-15T11:56:26.301Z,0.55
2018-02-15T11:57:26.246Z,0.66
2018-02-15T11:58:26.253Z,0.68
2018-02-15T11:59:26.254Z,0.72
2018-02-15T12:00:26.268Z,0.78
2018-02-15T12:01:26.235Z,0.8
2018-02-15T12:02:26.281Z,0.82
2018-02-15T12:03:26.293Z,0.67
2018-02-15T12:04:26.258Z,0.75
2018-02-15T12:05:26.293Z,0.75
2018-02-15T12:06:26.247Z,0.74
2018-02-15T12:07:26.264Z,0.7
2018-02-15T12:08:26.262Z,0.74
2018-02-15T12:09:26.269Z,0.7
2018-02-15T12:10:26.279Z,0.75
2018-02-15T12:11:26.272Z,0.77
2018-02-15T12:12:26.284Z,0.76
2018-02-15T12:13:26.295Z,0.83
2018-02-15T12:14:26.277Z,0.8
2018-02-15T12:15:26.285Z,0.83
2018-02-15T12:16:26.290Z,0.85
2018-02-15T12:17:26.293Z,0.85
2018-02-15T12:18:26.561Z,0.91
2018-02-15T12:19:26.431Z,0.94
2018-02-15T12:20:26.439Z,0.89
2018-02-15T12:21:26.307Z,0.9
2018-02-15T12:22:26.328Z,0.83
2018-02-15T12:23:26.475Z,0.88
2018-02-15T12:24:26.347Z,0.95
2018-02-15T12:25:26.348Z,0.9
2018-02-15T12:26:26.462Z,0.93
2018-02-15T12:27:26.362Z,0.91
2018-02-15T12:28:26.374Z,0.9
2018-02-15T12:29:26.384Z,0.92
2018-02-15T12:30:26.389Z,0.95
2018-02-15T12:31:26.370Z,1.03
2018-02-15T12:32:26.420Z,0.98
2018-02-15T12:33:26.387Z,0.97
2018-02-15T12:34:26.429Z,1.03
2018-02-15T12:35:26.417Z,1.08
2018-02-15T12:36:26.348Z,1.2
2018-02-15T12:37:26.410Z,1.12
2018-02-15T12:38:26.363Z,1.14
2018-02-15T12:39:26.447Z,1.23
2018-02-15T12:40:26.515Z,1.13
2018-02-15T12:41:26.464Z,1.05
2018-02-15T12:42:26.685Z,1.13
2018-02-15T12:43:26.543Z,1.19
2018-02-15T12:44:26.485Z,1.09
2018-02-15T12:45:26.488Z,1.15
2018-02-15T12:46:26.485Z,1.15
2018-02-15T12:47:26.512Z,1.06
2018-02-15T12:48:26.504Z,1.19
2018-02-15T12:49:26.414Z,1.06
2018-02-15T12:50:26.417Z,1.14
2018-02-15T12:51:26.428Z,1.2
2018-02-15T12:52:26.413Z,1.27
2018-02-15T12:53:26.418Z,1.22
2018-02-15T12:54:26.595Z,1.14
2018-02-15T12:55:26.406Z,1.23
2018-02-15T12:56:26.403Z,1.3
2018-02-15T12:57:26.408Z,1.25
2018-02-15T12:58:26.451Z,1.28
2018-02-15T12:59:26.407Z,1.26